sensor_id;sensor_type;location;lat;lon;timestamp;pressure;altitude;pressure_sealevel;temperature;humidity
61055;BME280;46939;48.940;8.258;2023-02-03T00:01:57;101766.72;;;15.20;43.27
61055;BME280;46939;48.940;8.258;2023-02-03T00:04:27;101772.00;;;15.79;42.14
61055;BME280;46939;48.940;8.258;2023-02-03T00:06:56;101770.00;;;15.22;43.27
61055;BME280;46939;48.940;8.258;2023-02-03T00:09:24;101767.50;;;15.65;42.19
61055;BME280;46939;48.940;8.258;2023-02-03T00:11:53;101769.19;;;15.51;42.64
61055;BME280;46939;48.940;8.258;2023-02-03T00:14:24;101772.34;;;15.91;41.86
61055;BME280;46939;48.940;8.258;2023-02-03T00:16:54;101772.22;;;15.18;42.71
61055;BME280;46939;48.940;8.258;2023-02-03T00:19:23;101778.41;;;15.04;43.68
61055;BME280;46939;48.940;8.258;2023-02-03T00:21:51;101768.91;;;15.60;41.86
61055;BME280;46939;48.940;8.258;2023-02-03T00:24:20;101755.78;;;15.14;42.99
61055;BME280;46939;48.940;8.258;2023-02-03T00:26:49;101750.28;;;15.52;41.71
61055;BME280;46939;48.940;8.258;2023-02-03T00:29:17;101755.00;;;15.50;41.83
61055;BME280;46939;48.940;8.258;2023-02-03T00:31:52;101756.19;;;15.77;41.81
61055;BME280;46939;48.940;8.258;2023-02-03T00:34:21;101763.38;;;15.98;40.92
61055;BME280;46939;48.940;8.258;2023-02-03T00:36:49;101762.38;;;15.99;41.35
61055;BME280;46939;48.940;8.258;2023-02-03T00:39:17;101757.53;;;15.88;40.96
61055;BME280;46939;48.940;8.258;2023-02-03T00:41:45;101756.19;;;15.48;42.40
61055;BME280;46939;48.940;8.258;2023-02-03T00:44:14;101758.78;;;15.41;42.27
61055;BME280;46939;48.940;8.258;2023-02-03T00:46:42;101749.03;;;15.04;42.69
61055;BME280;46939;48.940;8.258;2023-02-03T00:49:13;101761.22;;;14.69;43.42
61055;BME280;46939;48.940;8.258;2023-02-03T00:51:42;101768.41;;;14.83;43.93
61055;BME280;46939;48.940;8.258;2023-02-03T00:54:10;101764.69;;;14.54;44.40
61055;BME280;46939;48.940;8.258;2023-02-03T00:56:38;101766.50;;;14.92;43.62
61055;BME280;46939;48.940;8.258;2023-02-03T00:59:07;101772.97;;;14.59;44.31
61055;BME280;46939;48.940;8.258;2023-02-03T01:01:36;101773.44;;;14.40;44.72
61055;BME280;46939;48.940;8.258;2023-02-03T01:04:04;101766.41;;;14.85;43.73
61055;BME280;46939;48.940;8.258;2023-02-03T01:06:35;101766.50;;;14.92;43.53
61055;BME280;46939;48.940;8.258;2023-02-03T01:09:04;101756.28;;;15.25;42.90
61055;BME280;46939;48.940;8.258;2023-02-03T01:11:32;101756.81;;;14.76;43.87
61055;BME280;46939;48.940;8.258;2023-02-03T01:14:00;101749.19;;;14.73;44.01
61055;BME280;46939;48.940;8.258;2023-02-03T01:16:29;101734.31;;;15.08;43.31
61055;BME280;46939;48.940;8.258;2023-02-03T01:19:00;101738.16;;;15.05;43.32
61055;BME280;46939;48.940;8.258;2023-02-03T01:21:29;101731.72;;;14.47;44.79
61055;BME280;46939;48.940;8.258;2023-02-03T01:24:00;101732.97;;;14.59;44.71
61055;BME280;46939;48.940;8.258;2023-02-03T01:26:28;101730.78;;;14.17;45.89
61055;BME280;46939;48.940;8.258;2023-02-03T01:28:58;101724.34;;;14.72;45.13
61055;BME280;46939;48.940;8.258;2023-02-03T01:31:28;101743.34;;;14.54;44.95
61055;BME280;46939;48.940;8.258;2023-02-03T01:33:57;101744.13;;;14.78;44.39
61055;BME280;46939;48.940;8.258;2023-02-03T01:36:28;101765.03;;;14.51;45.46
61055;BME280;46939;48.940;8.258;2023-02-03T01:38:56;101762.91;;;15.14;43.85
61055;BME280;46939;48.940;8.258;2023-02-03T01:41:32;101773.31;;;14.56;44.38
61055;BME280;46939;48.940;8.258;2023-02-03T01:44:01;101769.72;;;14.87;44.52
61055;BME280;46939;48.940;8.258;2023-02-03T01:46:50;101743.06;;;14.49;45.01
61055;BME280;46939;48.940;8.258;2023-02-03T01:49:22;101736.94;;;14.17;45.36
61055;BME280;46939;48.940;8.258;2023-02-03T01:51:52;101738.81;;;13.55;46.62
61055;BME280;46939;48.940;8.258;2023-02-03T01:54:24;101723.03;;;14.53;45.16
61055;BME280;46939;48.940;8.258;2023-02-03T01:56:59;101716.00;;;15.05;44.59
61055;BME280;46939;48.940;8.258;2023-02-03T01:59:30;101703.00;;;14.57;45.14
61055;BME280;46939;48.940;8.258;2023-02-03T02:02:00;101705.66;;;14.57;45.31
61055;BME280;46939;48.940;8.258;2023-02-03T02:04:35;101702.00;;;14.73;45.86
61055;BME280;46939;48.940;8.258;2023-02-03T02:07:08;101668.41;;;14.94;45.13
61055;BME280;46939;48.940;8.258;2023-02-03T02:09:36;101656.22;;;14.47;46.22
61055;BME280;46939;48.940;8.258;2023-02-03T02:12:08;101637.88;;;14.52;46.45
61055;BME280;46939;48.940;8.258;2023-02-03T02:14:37;101634.09;;;14.08;47.26
61055;BME280;46939;48.940;8.258;2023-02-03T02:17:11;101637.44;;;14.78;45.25
61055;BME280;46939;48.940;8.258;2023-02-03T02:20:04;101652.97;;;15.04;44.91
61055;BME280;46939;48.940;8.258;2023-02-03T02:22:56;101670.47;;;14.39;46.26
61055;BME280;46939;48.940;8.258;2023-02-03T02:25:47;101666.78;;;14.40;46.25
61055;BME280;46939;48.940;8.258;2023-02-03T02:28:43;101664.56;;;14.29;46.31
61055;BME280;46939;48.940;8.258;2023-02-03T02:31:40;101666.66;;;15.30;44.46
61055;BME280;46939;48.940;8.258;2023-02-03T02:34:13;101664.94;;;15.44;44.08
61055;BME280;46939;48.940;8.258;2023-02-03T02:36:54;101655.19;;;14.85;44.86
61055;BME280;46939;48.940;8.258;2023-02-03T02:39:33;101646.81;;;15.03;45.00
61055;BME280;46939;48.940;8.258;2023-02-03T02:42:09;101649.44;;;15.18;44.13
61055;BME280;46939;48.940;8.258;2023-02-03T02:44:45;101641.88;;;15.22;44.41
61055;BME280;46939;48.940;8.258;2023-02-03T02:47:20;101657.34;;;15.62;43.49
61055;BME280;46939;48.940;8.258;2023-02-03T02:49:53;101673.66;;;15.17;44.04
61055;BME280;46939;48.940;8.258;2023-02-03T02:52:25;101662.50;;;15.13;44.88
61055;BME280;46939;48.940;8.258;2023-02-03T02:55:00;101657.47;;;14.88;45.43
61055;BME280;46939;48.940;8.258;2023-02-03T02:57:30;101655.97;;;14.56;45.58
61055;BME280;46939;48.940;8.258;2023-02-03T03:00:01;101650.56;;;14.50;46.00
61055;BME280;46939;48.940;8.258;2023-02-03T03:02:34;101649.13;;;14.92;45.18
61055;BME280;46939;48.940;8.258;2023-02-03T03:05:05;101650.41;;;14.66;45.46
61055;BME280;46939;48.940;8.258;2023-02-03T03:07:39;101645.16;;;14.87;44.42
61055;BME280;46939;48.940;8.258;2023-02-03T03:10:13;101640.28;;;14.61;45.28
61055;BME280;46939;48.940;8.258;2023-02-03T03:12:46;101637.06;;;14.81;45.05
61055;BME280;46939;48.940;8.258;2023-02-03T03:15:20;101637.97;;;15.03;44.49
61055;BME280;46939;48.940;8.258;2023-02-03T03:17:56;101627.56;;;15.08;44.28
61055;BME280;46939;48.940;8.258;2023-02-03T03:20:26;101610.84;;;14.84;44.66
61055;BME280;46939;48.940;8.258;2023-02-03T03:22:58;101631.16;;;15.36;43.45
61055;BME280;46939;48.940;8.258;2023-02-03T03:25:34;101632.84;;;15.59;42.74
61055;BME280;46939;48.940;8.258;2023-02-03T03:28:09;101644.25;;;15.31;43.19
61055;BME280;46939;48.940;8.258;2023-02-03T03:30:40;101650.75;;;15.07;44.23
61055;BME280;46939;48.940;8.258;2023-02-03T03:33:12;101657.75;;;14.49;45.48
61055;BME280;46939;48.940;8.258;2023-02-03T03:35:44;101672.97;;;14.17;46.52
61055;BME280;46939;48.940;8.258;2023-02-03T03:38:20;101674.56;;;15.09;44.42
61055;BME280;46939;48.940;8.258;2023-02-03T03:40:54;101677.25;;;14.94;43.90
61055;BME280;46939;48.940;8.258;2023-02-03T03:43:29;101667.94;;;14.60;44.91
61055;BME280;46939;48.940;8.258;2023-02-03T03:46:02;101683.06;;;14.07;46.35
61055;BME280;46939;48.940;8.258;2023-02-03T03:48:39;101675.09;;;13.84;46.51
61055;BME280;46939;48.940;8.258;2023-02-03T03:51:17;101693.72;;;14.30;45.86
61055;BME280;46939;48.940;8.258;2023-02-03T03:53:49;101688.19;;;14.70;44.78
61055;BME280;46939;48.940;8.258;2023-02-03T03:56:23;101692.88;;;14.82;44.35
61055;BME280;46939;48.940;8.258;2023-02-03T03:58:53;101695.34;;;14.31;45.44
61055;BME280;46939;48.940;8.258;2023-02-03T04:01:23;101707.56;;;13.80;46.31
61055;BME280;46939;48.940;8.258;2023-02-03T04:03:57;101717.53;;;14.09;45.91
61055;BME280;46939;48.940;8.258;2023-02-03T04:06:27;101719.84;;;14.12;45.33
61055;BME280;46939;48.940;8.258;2023-02-03T04:08:55;101723.66;;;14.32;45.40
61055;BME280;46939;48.940;8.258;2023-02-03T04:11:23;101734.59;;;14.23;45.79
61055;BME280;46939;48.940;8.258;2023-02-03T04:14:04;101718.06;;;14.27;45.26
61055;BME280;46939;48.940;8.258;2023-02-03T04:16:33;101717.56;;;14.47;45.23
61055;BME280;46939;48.940;8.258;2023-02-03T04:19:04;101707.19;;;14.52;45.16
61055;BME280;46939;48.940;8.258;2023-02-03T04:21:32;101700.31;;;14.57;44.88
61055;BME280;46939;48.940;8.258;2023-02-03T04:24:00;101678.59;;;14.60;45.34
61055;BME280;46939;48.940;8.258;2023-02-03T04:26:29;101696.66;;;14.58;45.31
61055;BME280;46939;48.940;8.258;2023-02-03T04:28:57;101689.91;;;14.25;46.62
61055;BME280;46939;48.940;8.258;2023-02-03T04:33:55;101694.06;;;13.81;47.44
61055;BME280;46939;48.940;8.258;2023-02-03T04:36:26;101681.47;;;13.98;46.73
61055;BME280;46939;48.940;8.258;2023-02-03T04:38:54;101683.66;;;13.95;47.08
61055;BME280;46939;48.940;8.258;2023-02-03T04:41:22;101671.72;;;14.28;46.34
61055;BME280;46939;48.940;8.258;2023-02-03T04:43:51;101674.56;;;14.50;45.31
61055;BME280;46939;48.940;8.258;2023-02-03T04:46:22;101687.53;;;13.92;46.14
61055;BME280;46939;48.940;8.258;2023-02-03T04:48:51;101688.03;;;13.87;46.39
61055;BME280;46939;48.940;8.258;2023-02-03T04:51:19;101703.91;;;14.04;45.81
61055;BME280;46939;48.940;8.258;2023-02-03T04:53:50;101697.03;;;14.09;45.54
61055;BME280;46939;48.940;8.258;2023-02-03T04:56:18;101679.00;;;15.02;43.51
61055;BME280;46939;48.940;8.258;2023-02-03T04:58:46;101674.22;;;14.82;43.78
61055;BME280;46939;48.940;8.258;2023-02-03T05:01:15;101679.53;;;14.68;43.76
61055;BME280;46939;48.940;8.258;2023-02-03T05:03:43;101692.63;;;14.39;44.35
61055;BME280;46939;48.940;8.258;2023-02-03T05:06:12;101689.41;;;14.44;44.23
61055;BME280;46939;48.940;8.258;2023-02-03T05:08:40;101688.75;;;14.95;43.64
61055;BME280;46939;48.940;8.258;2023-02-03T05:11:11;101681.09;;;15.21;42.83
61055;BME280;46939;48.940;8.258;2023-02-03T05:13:39;101685.31;;;15.45;42.39
61055;BME280;46939;48.940;8.258;2023-02-03T05:16:07;101684.69;;;14.99;43.00
61055;BME280;46939;48.940;8.258;2023-02-03T05:18:36;101691.06;;;15.49;41.69
61055;BME280;46939;48.940;8.258;2023-02-03T05:21:04;101698.53;;;15.53;42.19
61055;BME280;46939;48.940;8.258;2023-02-03T05:23:33;101684.22;;;15.76;41.21
61055;BME280;46939;48.940;8.258;2023-02-03T05:26:01;101683.63;;;15.44;41.64
61055;BME280;46939;48.940;8.258;2023-02-03T05:28:32;101684.41;;;15.23;42.49
61055;BME280;46939;48.940;8.258;2023-02-03T05:31:01;101679.75;;;14.96;43.14
61055;BME280;46939;48.940;8.258;2023-02-03T05:33:31;101680.00;;;14.86;43.00
61055;BME280;46939;48.940;8.258;2023-02-03T05:35:59;101684.72;;;14.69;43.84
61055;BME280;46939;48.940;8.258;2023-02-03T05:38:28;101674.13;;;15.05;43.14
61055;BME280;46939;48.940;8.258;2023-02-03T05:40:56;101693.13;;;15.47;42.32
61055;BME280;46939;48.940;8.258;2023-02-03T05:43:39;101692.34;;;15.02;42.78
61055;BME280;46939;48.940;8.258;2023-02-03T05:46:08;101691.03;;;14.83;43.57
61055;BME280;46939;48.940;8.258;2023-02-03T05:48:36;101687.00;;;14.72;44.45
61055;BME280;46939;48.940;8.258;2023-02-03T05:51:04;101676.88;;;14.82;44.06
61055;BME280;46939;48.940;8.258;2023-02-03T05:53:36;101674.88;;;14.99;43.18
61055;BME280;46939;48.940;8.258;2023-02-03T05:56:05;101672.91;;;14.26;45.04
61055;BME280;46939;48.940;8.258;2023-02-03T05:58:33;101673.44;;;15.18;42.94
61055;BME280;46939;48.940;8.258;2023-02-03T06:01:04;101673.22;;;14.31;44.04
61055;BME280;46939;48.940;8.258;2023-02-03T06:03:32;101691.72;;;14.47;44.12
61055;BME280;46939;48.940;8.258;2023-02-03T06:06:01;101699.13;;;14.37;44.45
61055;BME280;46939;48.940;8.258;2023-02-03T06:08:29;101670.16;;;15.01;42.90
61055;BME280;46939;48.940;8.258;2023-02-03T06:10:58;101679.19;;;14.85;43.22
61055;BME280;46939;48.940;8.258;2023-02-03T06:13:29;101676.25;;;14.95;42.81
61055;BME280;46939;48.940;8.258;2023-02-03T06:15:57;101664.25;;;15.21;42.23
61055;BME280;46939;48.940;8.258;2023-02-03T06:18:28;101689.47;;;15.18;42.16
61055;BME280;46939;48.940;8.258;2023-02-03T06:20:56;101677.44;;;15.58;41.68
61055;BME280;46939;48.940;8.258;2023-02-03T06:23:25;101670.97;;;15.31;41.97
61055;BME280;46939;48.940;8.258;2023-02-03T06:25:53;101673.06;;;14.47;43.59
61055;BME280;46939;48.940;8.258;2023-02-03T06:28:24;101687.38;;;14.69;43.30
61055;BME280;46939;48.940;8.258;2023-02-03T06:30:53;101687.19;;;14.85;43.36
61055;BME280;46939;48.940;8.258;2023-02-03T06:33:21;101686.06;;;15.09;42.06
61055;BME280;46939;48.940;8.258;2023-02-03T06:35:52;101669.06;;;14.66;43.16
61055;BME280;46939;48.940;8.258;2023-02-03T06:38:21;101674.22;;;15.12;42.61
61055;BME280;46939;48.940;8.258;2023-02-03T06:40:49;101677.69;;;15.12;42.37
61055;BME280;46939;48.940;8.258;2023-02-03T06:43:17;101666.78;;;14.78;43.54
61055;BME280;46939;48.940;8.258;2023-02-03T06:45:46;101653.25;;;14.50;44.09
61055;BME280;46939;48.940;8.258;2023-02-03T06:48:15;101657.69;;;13.97;44.83
61055;BME280;46939;48.940;8.258;2023-02-03T06:50:43;101658.38;;;13.90;45.51
61055;BME280;46939;48.940;8.258;2023-02-03T06:53:15;101674.75;;;13.56;46.61
61055;BME280;46939;48.940;8.258;2023-02-03T06:55:43;101658.88;;;14.32;45.14
61055;BME280;46939;48.940;8.258;2023-02-03T06:58:12;101666.94;;;13.55;46.82
61055;BME280;46939;48.940;8.258;2023-02-03T07:00:40;101674.41;;;14.66;44.90
61055;BME280;46939;48.940;8.258;2023-02-03T07:03:08;101655.75;;;14.05;45.30
61055;BME280;46939;48.940;8.258;2023-02-03T07:05:37;101656.50;;;13.45;46.49
61055;BME280;46939;48.940;8.258;2023-02-03T07:08:05;101654.75;;;13.83;45.74
61055;BME280;46939;48.940;8.258;2023-02-03T07:10:36;101656.59;;;13.83;45.72
61055;BME280;46939;48.940;8.258;2023-02-03T07:13:06;101672.53;;;13.91;45.70
61055;BME280;46939;48.940;8.258;2023-02-03T07:15:34;101664.97;;;14.17;45.43
61055;BME280;46939;48.940;8.258;2023-02-03T07:18:03;101665.53;;;13.67;46.49
61055;BME280;46939;48.940;8.258;2023-02-03T07:20:32;101644.41;;;14.49;44.33
61055;BME280;46939;48.940;8.258;2023-02-03T07:23:00;101642.72;;;14.10;45.67
61055;BME280;46939;48.940;8.258;2023-02-03T07:25:29;101633.03;;;13.72;46.10
61055;BME280;46939;48.940;8.258;2023-02-03T07:28:00;101648.84;;;13.96;46.17
61055;BME280;46939;48.940;8.258;2023-02-03T07:30:29;101647.53;;;14.15;45.25
61055;BME280;46939;48.940;8.258;2023-02-03T07:32:57;101650.66;;;14.71;44.12
61055;BME280;46939;48.940;8.258;2023-02-03T07:35:25;101662.00;;;14.73;44.21
61055;BME280;46939;48.940;8.258;2023-02-03T07:37:54;101673.22;;;14.69;44.08
61055;BME280;46939;48.940;8.258;2023-02-03T07:40:22;101680.22;;;14.09;45.85
61055;BME280;46939;48.940;8.258;2023-02-03T07:42:51;101691.16;;;15.19;43.20
61055;BME280;46939;48.940;8.258;2023-02-03T07:45:22;101708.31;;;15.46;42.56
61055;BME280;46939;48.940;8.258;2023-02-03T07:47:51;101709.72;;;15.27;42.56
61055;BME280;46939;48.940;8.258;2023-02-03T07:50:19;101705.75;;;14.79;43.52
61055;BME280;46939;48.940;8.258;2023-02-03T07:52:49;101705.59;;;15.10;42.94
61055;BME280;46939;48.940;8.258;2023-02-03T07:55:18;101721.78;;;13.72;46.22
61055;BME280;46939;48.940;8.258;2023-02-03T07:57:46;101724.81;;;13.92;46.18
61055;BME280;46939;48.940;8.258;2023-02-03T08:00:15;101717.53;;;14.09;45.90
61055;BME280;46939;48.940;8.258;2023-02-03T08:02:46;101712.53;;;14.29;44.81
61055;BME280;46939;48.940;8.258;2023-02-03T08:05:16;101726.34;;;14.09;45.17
61055;BME280;46939;48.940;8.258;2023-02-03T08:07:45;101740.00;;;13.83;46.00
61055;BME280;46939;48.940;8.258;2023-02-03T08:10:14;101741.19;;;14.73;43.88
61055;BME280;46939;48.940;8.258;2023-02-03T08:12:43;101738.38;;;14.51;44.45
61055;BME280;46939;48.940;8.258;2023-02-03T08:15:13;101737.47;;;13.59;46.46
61055;BME280;46939;48.940;8.258;2023-02-03T08:17:41;101714.13;;;14.38;45.32
61055;BME280;46939;48.940;8.258;2023-02-03T08:20:13;101729.00;;;14.09;45.86
61055;BME280;46939;48.940;8.258;2023-02-03T08:22:42;101712.63;;;13.35;47.36
61055;BME280;46939;48.940;8.258;2023-02-03T08:25:10;101713.91;;;14.25;45.62
61055;BME280;46939;48.940;8.258;2023-02-03T08:27:39;101739.19;;;14.52;44.41
61055;BME280;46939;48.940;8.258;2023-02-03T08:30:11;101750.09;;;14.65;44.35
61055;BME280;46939;48.940;8.258;2023-02-03T08:32:40;101746.44;;;15.10;43.63
61055;BME280;46939;48.940;8.258;2023-02-03T08:35:08;101767.13;;;13.87;45.69
61055;BME280;46939;48.940;8.258;2023-02-03T08:37:39;101751.22;;;14.85;44.39
61055;BME280;46939;48.940;8.258;2023-02-03T08:40:09;101742.22;;;15.01;43.59
61055;BME280;46939;48.940;8.258;2023-02-03T08:42:40;101743.50;;;15.35;43.14
61055;BME280;46939;48.940;8.258;2023-02-03T08:45:09;101736.88;;;15.01;43.94
61055;BME280;46939;48.940;8.258;2023-02-03T08:47:38;101757.38;;;14.86;43.88
61055;BME280;46939;48.940;8.258;2023-02-03T08:50:08;101733.66;;;15.21;43.60
61055;BME280;46939;48.940;8.258;2023-02-03T08:52:40;101731.16;;;14.75;44.86
61055;BME280;46939;48.940;8.258;2023-02-03T08:55:08;101734.41;;;15.14;43.54
61055;BME280;46939;48.940;8.258;2023-02-03T08:57:37;101713.06;;;14.24;45.51
61055;BME280;46939;48.940;8.258;2023-02-03T09:00:07;101716.81;;;15.35;43.53
61055;BME280;46939;48.940;8.258;2023-02-03T09:02:36;101732.28;;;14.95;44.45
61055;BME280;46939;48.940;8.258;2023-02-03T09:05:05;101722.22;;;14.30;46.00
61055;BME280;46939;48.940;8.258;2023-02-03T09:07:33;101725.47;;;14.78;44.84
61055;BME280;46939;48.940;8.258;2023-02-03T09:10:04;101715.69;;;14.09;45.85
61055;BME280;46939;48.940;8.258;2023-02-03T09:12:33;101730.38;;;14.51;45.63
61055;BME280;46939;48.940;8.258;2023-02-03T09:15:01;101724.56;;;15.00;44.77
61055;BME280;46939;48.940;8.258;2023-02-03T09:17:30;101732.13;;;14.59;45.01
61055;BME280;46939;48.940;8.258;2023-02-03T09:19:58;101738.22;;;14.68;45.20
61055;BME280;46939;48.940;8.258;2023-02-03T09:22:26;101738.72;;;15.01;45.04
61055;BME280;46939;48.940;8.258;2023-02-03T09:24:55;101734.69;;;15.20;44.44
61055;BME280;46939;48.940;8.258;2023-02-03T09:27:26;101732.09;;;14.82;45.37
61055;BME280;46939;48.940;8.258;2023-02-03T09:29:54;101741.31;;;15.24;44.60
61055;BME280;46939;48.940;8.258;2023-02-03T09:32:23;101729.69;;;15.17;44.17
61055;BME280;46939;48.940;8.258;2023-02-03T09:34:51;101741.63;;;14.15;46.93
61055;BME280;46939;48.940;8.258;2023-02-03T09:37:19;101726.69;;;14.29;46.89
61055;BME280;46939;48.940;8.258;2023-02-03T09:39:48;101731.25;;;14.21;47.00
61055;BME280;46939;48.940;8.258;2023-02-03T09:42:41;101724.25;;;14.43;46.34
61055;BME280;46939;48.940;8.258;2023-02-03T09:45:19;101720.19;;;14.09;47.62
61055;BME280;46939;48.940;8.258;2023-02-03T09:47:48;101707.22;;;13.83;48.48
61055;BME280;46939;48.940;8.258;2023-02-03T09:50:21;101712.50;;;14.89;45.95
61055;BME280;46939;48.940;8.258;2023-02-03T09:52:51;101702.44;;;15.06;45.28
61055;BME280;46939;48.940;8.258;2023-02-03T09:55:27;101703.09;;;14.79;45.68
61055;BME280;46939;48.940;8.258;2023-02-03T09:58:03;101715.50;;;14.72;46.11
61055;BME280;46939;48.940;8.258;2023-02-03T10:00:35;101701.72;;;14.45;45.89
61055;BME280;46939;48.940;8.258;2023-02-03T10:03:14;101704.94;;;14.40;46.60
61055;BME280;46939;48.940;8.258;2023-02-03T10:06:00;101703.31;;;15.07;44.75
61055;BME280;46939;48.940;8.258;2023-02-03T10:08:40;101697.66;;;14.57;46.39
61055;BME280;46939;48.940;8.258;2023-02-03T10:11:18;101704.50;;;14.89;45.41
61055;BME280;46939;48.940;8.258;2023-02-03T10:14:01;101714.41;;;15.25;44.74
61055;BME280;46939;48.940;8.258;2023-02-03T10:16:45;101719.91;;;14.50;46.64
61055;BME280;46939;48.940;8.258;2023-02-03T10:19:20;101719.94;;;15.09;45.35
61055;BME280;46939;48.940;8.258;2023-02-03T10:21:52;101707.88;;;15.43;44.44
61055;BME280;46939;48.940;8.258;2023-02-03T10:24:26;101717.88;;;14.52;46.04
61055;BME280;46939;48.940;8.258;2023-02-03T10:26:55;101732.38;;;15.02;45.40
61055;BME280;46939;48.940;8.258;2023-02-03T10:29:35;101732.25;;;15.39;44.98
61055;BME280;46939;48.940;8.258;2023-02-03T10:32:07;101723.31;;;15.47;44.35
61055;BME280;46939;48.940;8.258;2023-02-03T10:34:36;101721.31;;;15.34;43.76
61055;BME280;46939;48.940;8.258;2023-02-03T10:37:12;101719.44;;;15.65;43.91
61055;BME280;46939;48.940;8.258;2023-02-03T10:39:45;101719.16;;;15.74;42.95
61055;BME280;46939;48.940;8.258;2023-02-03T10:42:15;101717.53;;;15.29;44.64
61055;BME280;46939;48.940;8.258;2023-02-03T10:44:48;101700.31;;;15.46;44.16
61055;BME280;46939;48.940;8.258;2023-02-03T10:47:24;101693.16;;;15.02;44.67
61055;BME280;46939;48.940;8.258;2023-02-03T10:49:54;101693.81;;;15.34;44.31
61055;BME280;46939;48.940;8.258;2023-02-03T10:52:27;101718.03;;;14.88;45.15
61055;BME280;46939;48.940;8.258;2023-02-03T10:54:56;101708.81;;;15.05;45.78
61055;BME280;46939;48.940;8.258;2023-02-03T10:57:27;101694.97;;;15.46;44.61
61055;BME280;46939;48.940;8.258;2023-02-03T11:00:18;101683.22;;;16.48;42.64
61055;BME280;46939;48.940;8.258;2023-02-03T11:02:55;101683.47;;;15.82;43.32
61055;BME280;46939;48.940;8.258;2023-02-03T11:05:24;101685.28;;;16.74;41.87
61055;BME280;46939;48.940;8.258;2023-02-03T11:07:53;101700.75;;;15.86;43.47
61055;BME280;46939;48.940;8.258;2023-02-03T11:10:34;101698.88;;;15.80;43.46
61055;BME280;46939;48.940;8.258;2023-02-03T11:13:11;101720.38;;;15.93;43.58
61055;BME280;46939;48.940;8.258;2023-02-03T11:15:51;101708.13;;;15.48;43.70
61055;BME280;46939;48.940;8.258;2023-02-03T11:18:39;101691.63;;;16.45;42.13
61055;BME280;46939;48.940;8.258;2023-02-03T11:21:10;101682.13;;;16.98;41.10
61055;BME280;46939;48.940;8.258;2023-02-03T11:23:47;101684.72;;;16.85;41.28
61055;BME280;46939;48.940;8.258;2023-02-03T11:26:19;101672.09;;;17.07;40.61
61055;BME280;46939;48.940;8.258;2023-02-03T11:28:50;101669.03;;;17.17;39.90
61055;BME280;46939;48.940;8.258;2023-02-03T11:31:24;101673.53;;;16.75;41.25
61055;BME280;46939;48.940;8.258;2023-02-03T11:33:56;101662.44;;;16.78;41.43
61055;BME280;46939;48.940;8.258;2023-02-03T11:36:29;101655.88;;;16.80;41.18
61055;BME280;46939;48.940;8.258;2023-02-03T11:39:24;101647.81;;;16.46;42.11
61055;BME280;46939;48.940;8.258;2023-02-03T11:41:53;101653.00;;;16.82;41.29
61055;BME280;46939;48.940;8.258;2023-02-03T11:44:24;101655.69;;;16.26;41.71
61055;BME280;46939;48.940;8.258;2023-02-03T11:47:00;101643.63;;;16.08;42.81
61055;BME280;46939;48.940;8.258;2023-02-03T11:50:02;101624.97;;;15.94;42.67
61055;BME280;46939;48.940;8.258;2023-02-03T11:52:46;101587.34;;;15.67;43.05
61055;BME280;46939;48.940;8.258;2023-02-03T11:55:25;101602.97;;;15.12;44.29
61055;BME280;46939;48.940;8.258;2023-02-03T11:58:06;101598.47;;;15.71;42.85
61055;BME280;46939;48.940;8.258;2023-02-03T12:00:45;101619.91;;;15.41;43.88
61055;BME280;46939;48.940;8.258;2023-02-03T12:03:38;101636.66;;;16.14;41.59
61055;BME280;46939;48.940;8.258;2023-02-03T12:06:23;101634.16;;;16.34;41.53
61055;BME280;46939;48.940;8.258;2023-02-03T12:09:10;101636.03;;;16.40;41.41
61055;BME280;46939;48.940;8.258;2023-02-03T12:12:02;101634.25;;;16.47;41.47
61055;BME280;46939;48.940;8.258;2023-02-03T12:14:48;101630.84;;;16.04;42.23
61055;BME280;46939;48.940;8.258;2023-02-03T12:17:34;101627.66;;;16.15;42.24
61055;BME280;46939;48.940;8.258;2023-02-03T12:20:29;101639.91;;;16.31;41.54
61055;BME280;46939;48.940;8.258;2023-02-03T12:23:08;101627.78;;;15.85;42.69
61055;BME280;46939;48.940;8.258;2023-02-03T12:25:47;101636.19;;;16.04;42.72
61055;BME280;46939;48.940;8.258;2023-02-03T12:28:32;101644.72;;;15.93;42.12
61055;BME280;46939;48.940;8.258;2023-02-03T12:31:08;101646.44;;;16.84;40.18
61055;BME280;46939;48.940;8.258;2023-02-03T12:33:41;101661.22;;;16.52;41.41
61055;BME280;46939;48.940;8.258;2023-02-03T12:36:18;101658.38;;;16.54;40.56
61055;BME280;46939;48.940;8.258;2023-02-03T12:38:51;101670.81;;;17.51;39.05
61055;BME280;46939;48.940;8.258;2023-02-03T12:41:26;101679.28;;;17.68;38.84
61055;BME280;46939;48.940;8.258;2023-02-03T12:43:59;101671.13;;;18.29;37.73
61055;BME280;46939;48.940;8.258;2023-02-03T12:46:30;101680.28;;;16.71;40.55
61055;BME280;46939;48.940;8.258;2023-02-03T12:49:03;101686.16;;;16.53;41.03
61055;BME280;46939;48.940;8.258;2023-02-03T12:51:40;101686.81;;;16.90;40.01
61055;BME280;46939;48.940;8.258;2023-02-03T12:54:20;101663.19;;;17.06;39.58
61055;BME280;46939;48.940;8.258;2023-02-03T12:56:52;101650.50;;;16.74;40.72
61055;BME280;46939;48.940;8.258;2023-02-03T12:59:24;101636.69;;;15.93;42.32
61055;BME280;46939;48.940;8.258;2023-02-03T13:01:58;101600.91;;;17.26;40.10
61055;BME280;46939;48.940;8.258;2023-02-03T13:04:32;101591.50;;;15.98;42.41
61055;BME280;46939;48.940;8.258;2023-02-03T13:07:07;101584.44;;;16.46;41.93
61055;BME280;46939;48.940;8.258;2023-02-03T13:09:46;101571.84;;;17.36;40.06
61055;BME280;46939;48.940;8.258;2023-02-03T13:12:24;101563.22;;;17.47;39.85
61055;BME280;46939;48.940;8.258;2023-02-03T13:14:59;101572.09;;;17.61;39.10
61055;BME280;46939;48.940;8.258;2023-02-03T13:17:38;101577.84;;;15.86;43.06
61055;BME280;46939;48.940;8.258;2023-02-03T13:20:14;101567.91;;;17.25;40.23